Time;durP1;ratioP1;P1;durP2;ratioP2;P2;SDS_P1;SDS_P2;PMS_P1;PMS_P2;Temp;Humidity;BMP_temperature;BMP_pressure;BME280_temperature;BME280_humidity;BME280_pressure;Samples;Min_cycle;Max_cycle;Signal;HPM_P1;HPM_P2
2022/02/14 00:00:39;;;;;;;10.87;6.10;;;10.90;99.90;;;;;;5019844;28;20199;-64
2022/02/14 00:03:13;;;;;;;12.93;6.43;;;10.90;99.90;;;;;;5025362;28;20197;-65
2022/02/14 00:05:41;;;;;;;12.40;6.03;;;10.90;99.90;;;;;;5035408;28;20217;-65
2022/02/14 00:08:11;;;;;;;10.23;5.53;;;10.90;99.90;;;;;;5033207;28;20215;-64
2022/02/14 00:10:40;;;;;;;14.20;5.77;;;10.90;99.90;;;;;;5030096;28;20607;-65
2022/02/14 00:13:08;;;;;;;8.40;5.30;;;11.00;99.90;;;;;;5023928;28;20201;-65
2022/02/14 00:15:38;;;;;;;8.77;5.60;;;11.00;99.90;;;;;;5010668;28;20225;-64
2022/02/14 00:18:07;;;;;;;9.20;5.03;;;11.00;99.90;;;;;;5017588;28;20661;-65
2022/02/14 00:20:35;;;;;;;13.13;5.03;;;10.90;99.90;;;;;;5022270;28;20197;-65
2022/02/14 00:23:03;;;;;;;9.63;5.27;;;11.00;99.90;;;;;;5019876;28;20919;-65
2022/02/14 00:25:31;;;;;;;7.57;5.27;;;11.00;99.90;;;;;;5024811;28;20765;-65
2022/02/14 00:28:00;;;;;;;6.03;4.97;;;11.00;99.90;;;;;;5027053;28;20181;-65
2022/02/14 00:30:29;;;;;;;10.27;5.70;;;11.00;99.90;;;;;;5022229;28;20210;-65
2022/02/14 00:32:59;;;;;;;7.00;5.57;;;11.00;99.90;;;;;;5024079;28;20205;-65
2022/02/14 00:35:27;;;;;;;9.43;5.73;;;11.00;99.90;;;;;;5023413;28;20679;-65
2022/02/14 00:37:55;;;;;;;13.20;5.77;;;11.00;99.90;;;;;;5021809;28;20185;-65
2022/02/14 00:40:24;;;;;;;7.93;5.23;;;11.00;99.90;;;;;;5028801;28;20264;-64
2022/02/14 00:42:52;;;;;;;7.93;4.90;;;11.00;99.90;;;;;;5025727;28;20266;-65
2022/02/14 00:45:21;;;;;;;8.87;4.37;;;10.90;99.90;;;;;;5020792;28;20750;-64
2022/02/14 00:47:49;;;;;;;5.73;3.80;;;11.00;99.90;;;;;;5018513;28;20209;-64
2022/02/14 00:50:19;;;;;;;12.37;4.67;;;10.90;99.90;;;;;;5016844;28;20229;-64
2022/02/14 00:52:48;;;;;;;4.73;3.80;;;11.00;99.90;;;;;;5022209;28;20285;-65
2022/02/14 00:55:17;;;;;;;5.80;4.00;;;11.00;99.90;;;;;;5016370;28;20337;-64
2022/02/14 00:57:47;;;;;;;6.93;4.00;;;11.00;99.90;;;;;;5025430;28;20212;-65
2022/02/14 01:00:16;;;;;;;6.47;3.93;;;11.00;99.90;;;;;;5024619;28;20205;-65
2022/02/14 01:02:44;;;;;;;6.67;4.00;;;11.10;99.90;;;;;;5028539;28;20224;-65
2022/02/14 01:05:13;;;;;;;6.23;4.10;;;11.00;99.90;;;;;;5019105;28;20284;-64
2022/02/14 01:07:43;;;;;;;7.87;3.80;;;11.00;99.90;;;;;;5032756;28;20303;-65
2022/02/14 01:10:13;;;;;;;4.63;3.60;;;11.00;99.90;;;;;;5026444;28;20244;-66
2022/02/14 01:12:42;;;;;;;8.40;3.80;;;11.00;99.90;;;;;;5024361;28;20198;-65
2022/02/14 01:15:11;;;;;;;6.80;3.57;;;11.00;99.90;;;;;;5018117;28;20237;-65
2022/02/14 01:17:39;;;;;;;5.20;4.13;;;11.00;99.90;;;;;;5026009;28;20229;-65
2022/02/14 01:20:11;;;;;;;8.13;4.00;;;11.00;99.90;;;;;;5027776;28;20247;-64
2022/02/14 01:22:42;;;;;;;5.37;4.10;;;11.00;99.90;;;;;;5023427;28;20197;-65
2022/02/14 01:25:11;;;;;;;7.90;3.70;;;11.10;99.90;;;;;;5020950;28;20221;-65
2022/02/14 01:27:40;;;;;;;10.20;4.00;;;11.10;99.90;;;;;;5022345;28;20300;-65
2022/02/14 01:30:10;;;;;;;5.97;3.73;;;11.10;99.90;;;;;;5027525;28;20211;-65
2022/02/14 01:32:39;;;;;;;7.97;4.00;;;11.10;99.90;;;;;;5022853;28;20963;-65
2022/02/14 01:35:08;;;;;;;5.60;4.47;;;11.10;99.90;;;;;;5035494;28;20812;-65
2022/02/14 01:37:39;;;;;;;10.23;4.80;;;11.00;99.90;;;;;;5025002;28;20221;-65
2022/02/14 01:40:12;;;;;;;10.40;4.60;;;11.00;99.90;;;;;;5023658;28;20204;-66
2022/02/14 01:42:41;;;;;;;8.87;5.00;;;10.90;99.90;;;;;;5030829;28;20266;-64
2022/02/14 01:45:10;;;;;;;6.40;4.70;;;10.90;99.90;;;;;;5045967;28;20201;-65
2022/02/14 01:47:40;;;;;;;8.57;5.03;;;10.90;99.90;;;;;;5029160;28;20289;-65
2022/02/14 01:50:11;;;;;;;8.40;5.20;;;10.90;99.90;;;;;;5019636;28;20304;-65
2022/02/14 01:52:40;;;;;;;6.90;4.40;;;10.90;99.90;;;;;;5016847;28;20186;-65
2022/02/14 01:55:14;;;;;;;6.90;4.70;;;10.90;99.90;;;;;;5021117;28;20206;-65
2022/02/14 01:57:43;;;;;;;8.70;4.80;;;10.90;99.90;;;;;;5019199;28;20225;-65
2022/02/14 02:00:13;;;;;;;9.87;4.40;;;10.80;99.90;;;;;;5012538;28;20906;-65
2022/02/14 02:02:42;;;;;;;6.67;4.13;;;10.80;99.90;;;;;;5032665;28;20608;-65
2022/02/14 02:05:10;;;;;;;5.30;4.50;;;10.80;99.90;;;;;;5019794;28;20279;-65
2022/02/14 02:07:39;;;;;;;9.63;4.50;;;10.90;99.90;;;;;;5022055;28;20791;-64
2022/02/14 02:10:09;;;;;;;6.47;4.27;;;10.80;99.90;;;;;;5032443;28;20225;-64
2022/02/14 02:12:47;;;;;;;9.83;4.53;;;10.90;99.90;;;;;;5021231;28;20259;-65
2022/02/14 02:15:16;;;;;;;11.60;4.60;;;10.90;99.90;;;;;;5021751;28;20228;-65
2022/02/14 02:17:44;;;;;;;8.37;4.27;;;10.80;99.90;;;;;;5020814;28;20245;-65
2022/02/14 02:20:14;;;;;;;4.20;3.50;;;10.90;99.90;;;;;;5023836;28;20287;-65
2022/02/14 02:22:44;;;;;;;4.23;3.83;;;10.90;99.90;;;;;;5019910;28;20823;-64
2022/02/14 02:25:19;;;;;;;5.40;3.70;;;10.80;99.90;;;;;;5015807;28;20197;-65
2022/02/14 02:27:47;;;;;;;5.50;3.80;;;10.90;99.90;;;;;;5022291;28;20759;-65
2022/02/14 02:30:18;;;;;;;10.20;3.47;;;10.80;99.90;;;;;;5017666;28;20272;-66
2022/02/14 02:32:47;;;;;;;8.47;3.63;;;10.90;99.90;;;;;;5019800;28;20264;-64
2022/02/14 02:35:15;;;;;;;6.03;3.20;;;10.90;99.90;;;;;;5011725;28;20317;-65
2022/02/14 02:37:44;;;;;;;4.83;3.37;;;10.90;99.90;;;;;;5035073;28;20578;-67
2022/02/14 02:40:14;;;;;;;5.67;3.10;;;10.90;99.90;;;;;;5023320;28;20229;-64
2022/02/14 02:42:43;;;;;;;4.90;3.10;;;10.90;99.90;;;;;;5021948;28;20237;-66
2022/02/14 02:45:11;;;;;;;3.83;2.57;;;10.90;99.90;;;;;;5026552;28;20211;-65
2022/02/14 02:47:42;;;;;;;10.23;2.60;;;11.00;99.90;;;;;;5021128;28;20209;-65
2022/02/14 02:50:10;;;;;;;2.80;2.30;;;11.00;99.90;;;;;;5022227;28;20695;-65
2022/02/14 02:52:39;;;;;;;6.00;2.80;;;11.00;99.90;;;;;;5021042;28;20201;-66
2022/02/14 02:55:08;;;;;;;6.37;2.73;;;11.00;99.90;;;;;;5024919;28;20255;-65
2022/02/14 02:57:37;;;;;;;4.80;2.70;;;11.00;99.90;;;;;;5018311;28;20288;-66
2022/02/14 03:00:07;;;;;;;2.70;2.50;;;10.90;99.90;;;;;;5027027;28;20323;-65
2022/02/14 03:02:35;;;;;;;5.00;2.60;;;10.90;99.90;;;;;;5018685;28;20246;-66
2022/02/14 03:05:04;;;;;;;2.60;2.40;;;10.90;99.90;;;;;;5043575;28;20539;-65
2022/02/14 03:07:32;;;;;;;5.40;2.50;;;10.90;99.90;;;;;;5016847;28;20265;-67
2022/02/14 03:10:01;;;;;;;2.70;2.50;;;10.90;99.90;;;;;;5020174;28;20233;-66
2022/02/14 03:12:29;;;;;;;4.03;2.80;;;11.00;99.90;;;;;;5023270;28;20272;-66
2022/02/14 03:14:59;;;;;;;3.70;2.50;;;11.00;99.90;;;;;;5031089;28;20532;-65
2022/02/14 03:17:27;;;;;;;2.73;2.10;;;11.00;99.90;;;;;;5029309;28;20276;-65
2022/02/14 03:19:56;;;;;;;3.60;2.60;;;11.00;99.90;;;;;;5023224;28;20280;-66
2022/02/14 03:22:24;;;;;;;4.83;2.50;;;11.00;99.90;;;;;;5022122;28;20713;-65
2022/02/14 03:24:52;;;;;;;3.73;2.50;;;11.00;99.90;;;;;;5020526;28;20651;-65
2022/02/14 03:27:21;;;;;;;2.63;2.37;;;11.00;99.90;;;;;;5018224;28;20320;-65
2022/02/14 03:29:49;;;;;;;3.87;2.63;;;11.00;99.90;;;;;;5026957;28;20201;-65
2022/02/14 03:32:18;;;;;;;3.37;2.47;;;11.00;99.90;;;;;;5018895;28;20276;-65
2022/02/14 03:34:47;;;;;;;4.60;2.47;;;11.00;99.90;;;;;;5019260;28;20206;-65
2022/02/14 03:37:16;;;;;;;3.07;2.80;;;10.90;99.90;;;;;;5029109;28;20201;-66
2022/02/14 03:39:44;;;;;;;5.10;2.53;;;10.90;99.90;;;;;;5039533;28;20228;-66
2022/02/14 03:42:13;;;;;;;5.77;2.50;;;10.90;99.90;;;;;;5031320;28;20192;-65
2022/02/14 03:44:41;;;;;;;2.53;2.30;;;10.90;99.90;;;;;;5028761;28;20634;-65
2022/02/14 03:47:10;;;;;;;4.73;2.70;;;10.80;99.90;;;;;;5024237;28;20228;-66
2022/02/14 03:49:40;;;;;;;4.30;2.50;;;10.80;99.90;;;;;;5022873;28;20197;-65
2022/02/14 03:52:08;;;;;;;3.57;2.53;;;10.80;99.90;;;;;;5024469;28;20623;-65
2022/02/14 03:54:36;;;;;;;4.03;2.93;;;10.80;99.90;;;;;;5025273;28;20272;-64
2022/02/14 03:57:05;;;;;;;2.70;2.50;;;10.80;99.90;;;;;;5027339;28;20258;-65
2022/02/14 03:59:34;;;;;;;3.90;2.47;;;10.80;99.90;;;;;;5017113;28;20221;-65
2022/02/14 04:02:03;;;;;;;6.63;2.37;;;10.80;99.90;;;;;;5024553;28;20663;-65
2022/02/14 04:04:31;;;;;;;5.53;2.63;;;10.80;99.90;;;;;;5024413;28;20206;-65
2022/02/14 04:07:01;;;;;;;7.17;2.70;;;10.80;99.90;;;;;;5028703;28;20237;-65
2022/02/14 04:09:29;;;;;;;3.00;2.40;;;10.90;99.90;;;;;;5025628;28;20285;-65
2022/02/14 04:11:57;;;;;;;5.23;2.37;;;10.90;99.90;;;;;;5027827;28;20213;-65
2022/02/14 04:14:26;;;;;;;4.63;2.53;;;10.90;99.90;;;;;;5023665;28;20201;-65
2022/02/14 04:16:54;;;;;;;6.73;2.57;;;10.90;99.90;;;;;;5023236;28;20200;-66
2022/02/14 04:19:22;;;;;;;6.17;2.70;;;10.90;99.90;;;;;;5027352;28;20667;-66
2022/02/14 04:21:51;;;;;;;4.50;2.47;;;11.00;99.90;;;;;;5022873;28;20229;-66
2022/02/14 04:24:20;;;;;;;2.40;2.20;;;11.00;99.90;;;;;;5044549;28;20231;-65
2022/02/14 04:26:49;;;;;;;3.40;2.50;;;11.00;99.90;;;;;;5023908;28;20753;-66
2022/02/14 04:29:17;;;;;;;4.53;2.40;;;11.00;99.90;;;;;;5028904;28;20726;-66
2022/02/14 04:31:45;;;;;;;6.07;2.93;;;11.00;99.90;;;;;;5028636;28;20193;-65
2022/02/14 04:34:14;;;;;;;3.10;2.80;;;11.00;99.90;;;;;;5020023;28;20244;-65
2022/02/14 04:36:42;;;;;;;5.40;2.67;;;11.10;99.90;;;;;;5022506;28;20275;-64
2022/02/14 04:39:10;;;;;;;3.10;2.40;;;11.10;99.90;;;;;;5028061;28;20243;-65
2022/02/14 04:41:40;;;;;;;4.97;2.90;;;11.10;99.90;;;;;;5023615;28;20192;-65
2022/02/14 04:44:09;;;;;;;6.87;2.40;;;11.20;99.90;;;;;;5025660;28;20228;-66
2022/02/14 04:46:38;;;;;;;4.90;2.87;;;11.20;99.90;;;;;;5027167;28;20198;-65
2022/02/14 04:49:07;;;;;;;4.07;2.73;;;11.20;99.90;;;;;;5019625;28;20283;-65
2022/02/14 04:51:37;;;;;;;3.03;2.70;;;11.20;99.90;;;;;;5020579;28;20208;-65
2022/02/14 04:54:05;;;;;;;7.07;3.00;;;11.20;99.90;;;;;;5030890;28;20610;-64
2022/02/14 04:56:34;;;;;;;5.40;2.90;;;11.20;99.90;;;;;;5029066;28;20202;-65
2022/02/14 04:59:04;;;;;;;4.87;2.70;;;11.20;99.90;;;;;;5019672;28;20240;-66
2022/02/14 05:01:32;;;;;;;3.03;2.80;;;11.30;99.90;;;;;;5017263;28;20276;-64
2022/02/14 05:04:00;;;;;;;2.93;2.77;;;11.40;99.90;;;;;;5033754;28;20198;-64
2022/02/14 05:06:29;;;;;;;9.23;3.13;;;11.40;99.90;;;;;;5040330;28;20222;-65
2022/02/14 05:08:57;;;;;;;3.30;2.83;;;11.40;99.90;;;;;;5022099;28;20280;-64
2022/02/14 05:11:25;;;;;;;3.43;2.83;;;11.50;99.90;;;;;;5016581;28;20730;-66
2022/02/14 05:13:54;;;;;;;8.77;4.03;;;11.50;99.90;;;;;;5023566;28;20733;-65
2022/02/14 05:16:24;;;;;;;4.50;3.43;;;11.50;99.90;;;;;;5024391;28;20321;-67
2022/02/14 05:18:53;;;;;;;5.27;3.63;;;11.50;99.90;;;;;;5026094;28;20228;-66
2022/02/14 05:21:22;;;;;;;4.47;2.90;;;11.50;99.90;;;;;;5023774;28;20247;-65
2022/02/14 05:23:51;;;;;;;7.53;2.80;;;11.50;99.90;;;;;;5025936;28;20225;-65
2022/02/14 05:26:20;;;;;;;6.33;3.40;;;11.50;99.90;;;;;;5025842;28;20193;-66
2022/02/14 05:28:54;;;;;;;7.17;3.53;;;11.50;99.90;;;;;;5021282;28;20218;-66
2022/02/14 05:31:26;;;;;;;7.57;3.70;;;11.50;99.90;;;;;;5026042;28;20193;-66
2022/02/14 05:33:54;;;;;;;6.93;3.33;;;11.50;99.90;;;;;;5028405;28;20205;-66
2022/02/14 05:36:23;;;;;;;5.70;3.67;;;11.50;99.90;;;;;;5025690;28;20204;-66
2022/02/14 05:38:51;;;;;;;5.83;3.70;;;11.50;99.90;;;;;;5016815;28;20607;-66
2022/02/14 05:41:20;;;;;;;3.70;3.10;;;11.30;99.90;;;;;;5020665;28;20209;-66
2022/02/14 05:43:49;;;;;;;6.57;3.20;;;11.20;99.90;;;;;;5042369;28;20201;-65
2022/02/14 05:46:17;;;;;;;8.47;2.93;;;11.10;99.90;;;;;;5018554;28;20225;-68
2022/02/14 05:48:48;;;;;;;5.73;3.20;;;11.10;99.90;;;;;;5026752;28;20292;-66
2022/02/14 05:51:17;;;;;;;5.10;3.07;;;11.10;99.90;;;;;;5026144;28;20197;-67
2022/02/14 05:53:45;;;;;;;4.20;2.83;;;11.00;99.90;;;;;;5028518;28;20228;-66
2022/02/14 05:56:15;;;;;;;4.47;2.60;;;10.90;99.90;;;;;;5022252;28;20193;-65
2022/02/14 05:58:44;;;;;;;1.70;1.60;;;10.70;99.90;;;;;;5033052;28;20769;-66
2022/02/14 06:01:12;;;;;;;1.63;1.53;;;10.40;99.90;;;;;;5035291;28;20203;-66
2022/02/14 06:03:41;;;;;;;1.40;1.37;;;10.10;99.90;;;;;;5017422;28;20297;-65
2022/02/14 06:06:11;;;;;;;1.43;1.43;;;9.90;99.90;;;;;;5018848;28;20229;-66
2022/02/14 06:08:39;;;;;;;3.47;1.80;;;9.80;99.90;;;;;;5020005;28;20229;-66
2022/02/14 06:11:08;;;;;;;2.30;1.70;;;9.70;99.90;;;;;;5023103;28;20273;-66
2022/02/14 06:13:36;;;;;;;4.10;1.73;;;9.60;99.90;;;;;;5018837;28;20199;-66
2022/02/14 06:16:05;;;;;;;1.90;1.40;;;9.60;99.90;;;;;;5014412;28;20198;-66
2022/02/14 06:18:34;;;;;;;1.50;1.40;;;9.50;99.90;;;;;;5023215;28;20277;-66
2022/02/14 06:21:03;;;;;;;1.80;1.40;;;9.50;99.90;;;;;;5019321;28;20182;-65
2022/02/14 06:23:33;;;;;;;2.43;1.50;;;9.40;99.90;;;;;;5022651;28;20201;-66
2022/02/14 06:26:02;;;;;;;1.50;1.50;;;9.30;99.90;;;;;;5018869;28;20647;-65
2022/02/14 06:28:38;;;;;;;1.57;1.57;;;9.20;99.90;;;;;;5021088;28;20217;-66
2022/02/14 06:31:07;;;;;;;1.50;1.40;;;9.20;99.90;;;;;;5021848;28;20276;-66
2022/02/14 06:33:42;;;;;;;1.30;1.30;;;9.20;99.90;;;;;;5025794;28;20262;-66
2022/02/14 06:36:13;;;;;;;1.83;1.40;;;9.20;99.90;;;;;;5017130;28;20292;-65
2022/02/14 06:38:44;;;;;;;1.70;1.60;;;9.20;99.90;;;;;;5014860;28;20217;-66
2022/02/14 06:41:12;;;;;;;1.60;1.60;;;9.10;99.90;;;;;;5017248;28;20202;-66
2022/02/14 06:43:41;;;;;;;1.90;1.80;;;9.10;99.90;;;;;;5018993;28;20281;-66
2022/02/14 06:46:09;;;;;;;1.63;1.63;;;9.10;99.90;;;;;;5021434;28;21287;-66
2022/02/14 06:48:38;;;;;;;2.23;1.80;;;9.10;99.90;;;;;;5024501;28;20219;-66
2022/02/14 06:51:06;;;;;;;1.77;1.77;;;9.00;99.90;;;;;;5022106;28;20193;-65
2022/02/14 06:53:35;;;;;;;2.10;2.00;;;9.00;99.90;;;;;;5024764;28;20251;-65
2022/02/14 06:56:06;;;;;;;2.03;1.93;;;8.90;99.90;;;;;;5025219;28;20213;-65
2022/02/14 06:58:34;;;;;;;1.70;1.70;;;8.90;99.90;;;;;;5022988;28;20233;-66
2022/02/14 07:01:04;;;;;;;2.80;1.80;;;8.90;99.90;;;;;;5026591;28;20214;-67
2022/02/14 07:03:32;;;;;;;1.40;1.40;;;8.90;99.90;;;;;;5024944;28;20197;-65
2022/02/14 07:06:01;;;;;;;2.27;1.40;;;8.90;99.90;;;;;;5026016;28;20209;-65
2022/02/14 07:08:31;;;;;;;2.43;1.50;;;8.80;99.90;;;;;;5022539;28;20224;-65
2022/02/14 07:11:00;;;;;;;1.60;1.60;;;8.80;99.90;;;;;;5023437;28;20228;-66
2022/02/14 07:13:30;;;;;;;2.20;1.80;;;8.80;99.90;;;;;;5026750;28;20205;-65
2022/02/14 07:15:58;;;;;;;1.70;1.70;;;8.80;99.90;;;;;;5034318;28;20217;-65
2022/02/14 07:18:28;;;;;;;2.00;2.00;;;8.70;99.90;;;;;;5026552;28;20205;-65
2022/02/14 07:20:57;;;;;;;2.70;1.70;;;8.70;99.90;;;;;;5031839;28;20210;-65
2022/02/14 07:23:25;;;;;;;1.90;1.90;;;8.70;99.90;;;;;;5034700;28;20197;-65
2022/02/14 07:25:54;;;;;;;1.70;1.70;;;8.70;99.90;;;;;;5030840;28;20201;-65
2022/02/14 07:28:22;;;;;;;2.00;1.90;;;8.70;99.90;;;;;;5029646;28;20208;-65
2022/02/14 07:30:52;;;;;;;1.83;1.83;;;8.70;99.90;;;;;;5034092;28;20213;-66
2022/02/14 07:33:20;;;;;;;2.13;1.93;;;8.70;99.90;;;;;;5040786;28;20205;-65
2022/02/14 07:35:52;;;;;;;1.97;1.70;;;8.70;99.90;;;;;;5028522;28;20201;-65
2022/02/14 07:38:20;;;;;;;1.97;1.77;;;8.70;99.90;;;;;;5026454;28;20213;-65
2022/02/14 07:40:49;;;;;;;2.00;1.90;;;8.70;99.90;;;;;;5029108;28;20197;-66
2022/02/14 07:43:17;;;;;;;1.60;1.60;;;8.80;99.90;;;;;;5033959;28;20198;-65
2022/02/14 07:45:45;;;;;;;1.67;1.57;;;8.80;99.90;;;;;;5030490;28;20213;-65
2022/02/14 07:48:17;;;;;;;3.23;2.13;;;8.80;99.90;;;;;;5029105;28;20296;-66
2022/02/14 07:50:48;;;;;;;2.10;2.00;;;8.80;99.90;;;;;;5039643;28;20237;-66
2022/02/14 07:53:18;;;;;;;3.93;2.20;;;8.80;99.90;;;;;;5031153;28;20197;-65
2022/02/14 07:55:47;;;;;;;4.73;2.17;;;8.80;99.90;;;;;;5024911;28;20225;-65
2022/02/14 07:58:15;;;;;;;4.83;1.60;;;8.80;99.90;;;;;;5032602;28;20198;-65
2022/02/14 08:00:43;;;;;;;5.50;4.33;;;8.80;99.90;;;;;;5031018;28;20191;-65
2022/02/14 08:03:12;;;;;;;4.60;3.17;;;8.90;99.90;;;;;;5012415;28;20207;-65
2022/02/14 08:05:42;;;;;;;5.37;4.30;;;8.90;99.90;;;;;;5020729;28;20205;-65
2022/02/14 08:08:10;;;;;;;3.83;3.40;;;9.00;99.90;;;;;;5033050;28;20241;-65
2022/02/14 08:10:51;;;;;;;2.63;1.83;;;9.00;99.90;;;;;;5031331;28;20205;-66
2022/02/14 08:13:19;;;;;;;13.73;9.50;;;9.00;99.90;;;;;;5032535;28;20197;-65
2022/02/14 08:15:48;;;;;;;4.90;4.60;;;9.00;99.90;;;;;;5015192;28;20733;-65
2022/02/14 08:18:17;;;;;;;4.53;3.13;;;9.10;99.90;;;;;;5024633;28;20220;-65
2022/02/14 08:20:46;;;;;;;2.07;1.97;;;9.10;99.90;;;;;;5034251;28;20185;-65
2022/02/14 08:23:15;;;;;;;2.30;1.67;;;9.10;99.90;;;;;;5040979;28;20197;-65
2022/02/14 08:25:44;;;;;;;2.63;2.50;;;9.20;99.90;;;;;;5023106;28;20206;-65
2022/02/14 08:28:14;;;;;;;3.00;1.90;;;9.30;99.90;;;;;;5025681;28;20202;-65
2022/02/14 08:30:44;;;;;;;1.53;1.47;;;9.40;99.90;;;;;;5020192;28;20752;-66
2022/02/14 08:33:13;;;;;;;3.17;2.00;;;9.40;99.90;;;;;;5022743;28;20210;-65
2022/02/14 08:35:41;;;;;;;2.10;2.00;;;9.50;99.90;;;;;;5023773;28;20207;-66
2022/02/14 08:38:15;;;;;;;3.23;2.77;;;9.50;99.90;;;;;;5018043;28;20205;-65
2022/02/14 08:40:43;;;;;;;7.07;5.03;;;9.60;99.90;;;;;;5025255;28;20190;-65
2022/02/14 08:43:12;;;;;;;37.53;20.90;;;9.60;99.90;;;;;;5024602;28;20221;-65
2022/02/14 08:46:00;;;;;;;11.67;7.70;;;9.50;99.90;;;;;;5023634;28;20194;-65
2022/02/14 08:48:30;;;;;;;8.63;4.63;;;9.60;99.90;;;;;;5023676;28;20190;-65
2022/02/14 08:50:58;;;;;;;2.17;1.70;;;9.70;99.90;;;;;;5027572;28;20435;-66
2022/02/14 08:53:33;;;;;;;2.00;1.90;;;9.70;99.90;;;;;;5024461;28;20221;-66
2022/02/14 08:56:04;;;;;;;4.20;3.13;;;9.90;99.90;;;;;;5008519;28;20598;-65
2022/02/14 08:58:33;;;;;;;18.70;13.20;;;10.00;99.90;;;;;;5026646;28;20713;-66
2022/02/14 09:01:02;;;;;;;14.83;10.73;;;10.10;99.90;;;;;;5020229;28;20253;-65
2022/02/14 09:03:31;;;;;;;4.10;2.43;;;10.40;99.90;;;;;;5034202;28;20193;-65
2022/02/14 09:06:00;;;;;;;1.57;1.33;;;10.50;99.90;;;;;;5019954;28;20236;-66
2022/02/14 09:08:29;;;;;;;2.70;1.60;;;10.50;99.90;;;;;;5042721;28;20643;-65
2022/02/14 09:10:59;;;;;;;3.13;1.53;;;10.60;99.90;;;;;;5022898;28;20209;-66
2022/02/14 09:13:27;;;;;;;2.20;1.40;;;10.80;99.90;;;;;;5025957;28;20716;-66
2022/02/14 09:15:56;;;;;;;3.80;2.83;;;10.90;99.90;;;;;;5016401;28;20193;-65
2022/02/14 09:18:25;;;;;;;1.73;1.57;;;10.90;99.90;;;;;;5016350;28;20271;-65
2022/02/14 09:20:59;;;;;;;1.70;1.40;;;11.00;99.90;;;;;;5019833;28;20206;-66
2022/02/14 09:23:27;;;;;;;2.90;2.57;;;11.00;99.90;;;;;;5022389;28;20260;-66
2022/02/14 09:25:58;;;;;;;11.37;8.70;;;11.10;99.90;;;;;;5019084;28;20198;-66
2022/02/14 09:28:26;;;;;;;9.50;3.47;;;11.30;99.90;;;;;;5032382;28;20198;-66
2022/02/14 09:30:55;;;;;;;2.60;1.70;;;11.30;99.90;;;;;;5025155;28;20205;-66
2022/02/14 09:33:25;;;;;;;7.80;2.40;;;11.30;99.90;;;;;;5015907;28;20194;-66
2022/02/14 09:35:54;;;;;;;3.47;2.70;;;11.40;99.90;;;;;;5036244;28;20272;-65
2022/02/14 09:38:26;;;;;;;5.83;1.90;;;11.50;99.90;;;;;;5023571;28;20598;-67
2022/02/14 09:40:55;;;;;;;7.53;4.03;;;11.50;99.90;;;;;;5024547;28;20567;-66
2022/02/14 09:43:26;;;;;;;3.13;1.60;;;11.40;99.90;;;;;;5012182;28;20763;-66
2022/02/14 09:45:55;;;;;;;2.27;1.50;;;11.40;99.90;;;;;;5024403;28;20287;-66
2022/02/14 09:48:24;;;;;;;4.03;1.47;;;11.40;99.90;;;;;;5031185;28;20287;-66
2022/02/14 09:50:54;;;;;;;1.70;1.60;;;11.30;99.90;;;;;;5018811;28;20221;-66
2022/02/14 09:53:22;;;;;;;1.93;1.50;;;11.30;99.90;;;;;;5019292;28;20610;-66
2022/02/14 09:55:51;;;;;;;3.27;1.53;;;11.50;99.90;;;;;;5022970;28;20284;-66
2022/02/14 09:58:20;;;;;;;2.87;1.60;;;11.70;99.90;;;;;;5028775;28;20548;-66
2022/02/14 10:00:51;;;;;;;4.10;1.77;;;12.10;99.90;;;;;;5025766;28;20750;-66
2022/02/14 10:03:22;;;;;;;3.97;1.60;;;12.10;99.90;;;;;;5021309;28;20260;-66
2022/02/14 10:05:52;;;;;;;3.17;1.53;;;11.90;99.90;;;;;;5020602;28;20204;-66
2022/02/14 10:08:22;;;;;;;7.43;2.20;;;11.80;99.90;;;;;;5021673;28;20225;-66
2022/02/14 10:10:53;;;;;;;4.17;1.80;;;12.20;99.90;;;;;;5022171;28;20718;-67
2022/02/14 10:13:31;;;;;;;5.37;1.80;;;12.20;99.90;;;;;;5015825;28;20741;-66
2022/02/14 10:16:01;;;;;;;5.30;1.87;;;11.70;99.90;;;;;;5022370;28;20216;-66
2022/02/14 10:18:31;;;;;;;4.37;1.93;;;12.00;99.90;;;;;;5017789;28;20283;-65
2022/02/14 10:21:21;;;;;;;5.17;1.93;;;12.00;99.90;;;;;;5026579;28;20789;-66
2022/02/14 10:24:02;;;;;;;4.80;1.90;;;12.10;99.90;;;;;;5023472;28;20345;-66
2022/02/14 10:26:32;;;;;;;4.80;2.53;;;12.20;99.90;;;;;;5024063;28;20193;-66
2022/02/14 10:29:13;;;;;;;7.83;2.17;;;12.20;99.90;;;;;;5023018;28;20227;-67
2022/02/14 10:31:44;;;;;;;5.37;2.67;;;11.90;99.90;;;;;;5024007;28;20292;-66
2022/02/14 10:34:14;;;;;;;6.87;3.00;;;11.90;99.90;;;;;;5021284;28;20194;-66
2022/02/14 10:36:44;;;;;;;6.17;3.20;;;12.40;99.90;;;;;;5004822;28;20397;-66
2022/02/14 10:39:16;;;;;;;10.40;5.93;;;12.40;99.90;;;;;;5022008;28;20611;-66
2022/02/14 10:41:47;;;;;;;11.10;5.87;;;12.50;99.90;;;;;;5021092;28;20788;-67
2022/02/14 10:45:07;;;;;;;8.73;5.40;;;12.40;99.90;;;;;;5028148;28;20706;-66
2022/02/14 10:47:12;;;;;;;14.03;6.50;;;12.20;99.90;;;;;;5016356;28;20188;-66
2022/02/14 10:49:41;;;;;;;42.20;19.73;;;12.40;99.90;;;;;;5022656;28;20659;-66
2022/02/14 10:52:11;;;;;;;34.60;14.27;;;12.90;99.90;;;;;;5032178;28;20208;-66
2022/02/14 10:54:42;;;;;;;10.33;4.10;;;13.50;99.90;;;;;;5039323;28;20675;-67
2022/02/14 10:57:26;;;;;;;4.33;2.40;;;13.20;99.90;;;;;;5025748;28;20296;-66
2022/02/14 10:59:59;;;;;;;8.17;2.17;;;12.40;99.90;;;;;;5034188;28;20203;-66
2022/02/14 11:02:29;;;;;;;4.53;2.40;;;11.90;99.90;;;;;;5028833;28;20240;-66
2022/02/14 11:04:59;;;;;;;6.73;2.20;;;11.70;99.90;;;;;;5038146;28;20197;-70
2022/02/14 11:07:28;;;;;;;5.30;2.10;;;11.50;99.90;;;;;;5039986;28;20225;-66
2022/02/14 11:09:58;;;;;;;4.87;2.10;;;11.50;99.90;;;;;;5020660;28;20208;-66
2022/02/14 11:12:31;;;;;;;23.03;11.70;;;11.70;99.90;;;;;;5038129;28;20209;-66
2022/02/14 11:15:02;;;;;;;13.00;6.23;;;11.90;99.90;;;;;;5022071;28;20217;-66
2022/02/14 11:17:34;;;;;;;9.00;3.07;;;11.90;99.90;;;;;;5018372;28;20202;-67
2022/02/14 11:20:05;;;;;;;7.83;2.33;;;11.80;99.90;;;;;;5030395;28;20229;-66
2022/02/14 11:22:37;;;;;;;5.83;2.40;;;11.50;99.90;;;;;;5028344;28;20664;-67
2022/02/14 11:25:18;;;;;;;4.60;2.53;;;11.10;99.90;;;;;;5026029;28;20584;-66
2022/02/14 11:27:58;;;;;;;7.23;2.37;;;10.80;99.90;;;;;;5020117;28;20193;-66
2022/02/14 11:30:29;;;;;;;8.10;3.93;;;10.50;99.90;;;;;;5023791;28;20236;-66
2022/02/14 11:33:12;;;;;;;7.77;3.00;;;10.50;99.90;;;;;;5022898;28;20228;-66
2022/02/14 11:35:42;;;;;;;8.30;2.53;;;10.30;99.90;;;;;;5026099;28;20209;-67
2022/02/14 11:38:10;;;;;;;7.67;2.67;;;10.30;99.90;;;;;;5024287;28;20251;-66
2022/02/14 11:40:41;;;;;;;3.80;2.17;;;10.50;99.90;;;;;;5024409;28;20201;-66
2022/02/14 11:43:23;;;;;;;6.37;2.00;;;10.70;99.90;;;;;;5031833;28;20198;-66
2022/02/14 11:46:18;;;;;;;6.47;3.77;;;11.20;99.90;;;;;;5023789;28;20648;-66
2022/02/14 11:48:55;;;;;;;5.23;2.03;;;12.40;99.90;;;;;;5015200;28;20210;-66
2022/02/14 11:51:37;;;;;;;5.73;1.87;;;12.90;99.90;;;;;;5021254;28;20248;-66
2022/02/14 11:54:07;;;;;;;4.33;2.30;;;12.60;99.90;;;;;;5022067;28;20194;-66
2022/02/14 11:56:41;;;;;;;4.77;1.80;;;11.90;99.90;;;;;;5016599;28;20213;-66
2022/02/14 11:59:16;;;;;;;4.03;1.90;;;11.60;99.90;;;;;;5020096;28;20194;-67
2022/02/14 12:02:01;;;;;;;4.87;2.07;;;12.00;99.90;;;;;;5035554;28;20202;-66
2022/02/14 12:04:46;;;;;;;7.70;2.40;;;11.90;99.90;;;;;;5018232;28;20193;-69
2022/02/14 12:07:26;;;;;;;6.60;2.27;;;11.60;99.90;;;;;;5025329;28;20328;-68
2022/02/14 12:10:15;;;;;;;3.40;2.17;;;11.20;99.90;;;;;;5024063;28;20239;-68
2022/02/14 12:13:08;;;;;;;6.53;1.90;;;11.10;99.90;;;;;;5035454;28;20271;-68
2022/02/14 12:21:15;;;;;;;8.27;2.00;;;11.20;99.90;;;;;;5020014;28;20205;-69
2022/02/14 12:24:18;;;;;;;5.73;2.50;;;11.10;99.90;;;;;;5022614;28;20335;-69
2022/02/14 12:26:53;;;;;;;7.37;2.57;;;11.10;99.90;;;;;;5020646;28;20194;-69
2022/02/14 12:29:35;;;;;;;7.50;1.80;;;11.70;99.90;;;;;;5023397;28;20203;-69
2022/02/14 12:32:09;;;;;;;7.10;2.00;;;11.90;99.90;;;;;;5018335;28;20308;-69
2022/02/14 12:34:38;;;;;;;9.57;2.83;;;11.60;99.90;;;;;;5028769;28;20292;-69
2022/02/14 12:37:10;;;;;;;10.43;3.40;;;11.40;99.90;;;;;;5017849;28;20209;-69
2022/02/14 12:39:41;;;;;;;10.17;3.53;;;11.50;99.90;;;;;;5026848;28;20198;-68
2022/02/14 12:42:12;;;;;;;11.97;2.87;;;11.30;99.90;;;;;;5022093;28;20221;-69
2022/02/14 12:44:41;;;;;;;6.17;2.30;;;11.10;99.90;;;;;;5030303;28;20198;-69
2022/02/14 12:47:11;;;;;;;8.83;2.57;;;11.00;99.90;;;;;;5030491;28;20218;-67
2022/02/14 12:49:42;;;;;;;9.30;2.40;;;11.30;99.90;;;;;;5011998;28;20254;-68
2022/02/14 12:52:17;;;;;;;4.23;1.87;;;11.80;99.90;;;;;;5023393;28;20241;-68
2022/02/14 12:54:53;;;;;;;2.33;1.57;;;12.50;99.90;;;;;;5014272;28;20210;-68
2022/02/14 12:57:36;;;;;;;5.17;1.80;;;12.70;99.90;;;;;;5023338;28;20272;-69
2022/02/14 13:00:20;;;;;;;7.83;2.80;;;13.00;99.90;;;;;;5016517;28;20194;-68
2022/02/14 13:02:51;;;;;;;6.00;2.50;;;12.90;99.90;;;;;;5025593;28;20263;-68
2022/02/14 13:05:19;;;;;;;7.17;2.77;;;12.50;99.90;;;;;;5023336;28;20220;-69
2022/02/14 13:07:50;;;;;;;6.23;2.00;;;12.10;99.90;;;;;;5026368;28;20623;-68
2022/02/14 13:10:19;;;;;;;7.63;2.23;;;11.80;99.90;;;;;;5018614;28;20210;-68